Chrisanthi — SX7108 — position and weather

sailwx.info

Track history (hours):
 
Tides and Currents Weather Stations Pressure Air Temp Water Temp Dewpoint Dewpoint Depression Visibility Wind Speed Wind Dir Waves Ship Positions

Chrisanthi

Last reported at 2017-Jan-20 19:33 UTC. Time now 2017-Jan-20 20:12 UTC.
Position N 37°49' E 023°40'.

Length 56 m; draft 3.9 m.

Type: Ship (hazmat cat A). MMSI: 237009100.

Date/timePositionNaut miles runAvg speedWind from/ knotsBaromVisibWave heightAir tempDewpointWater temp
2017-Jan-20 19:33N 37°49' E 023°40'1110.1
2017-Jan-20 18:30N 37°40' E 023°46'74 2.8
2017-Jan-19 15:31N 37°09' E 025°12'9 8.9
2017-Jan-19 14:33N 37°06' E 025°22'0 0.3
2017-Jan-19 13:33N 37°06' E 025°22'0 0.0
2017-Jan-19 12:33N 37°06' E 025°22'0 0.0
2017-Jan-19 11:33N 37°06' E 025°22'  
2017-Jan-12 16:34N 37°04' E 025°05'7 2.4
2017-Jan-12 13:33N 37°10' E 025°00'69 9.8
2017-Jan-12 06:33N 37°40' E 023°42'10 9.7
2017-Jan-12 05:33N 37°47' E 023°33'5 5.1
2017-Jan-12 04:33N 37°46' E 023°27'0 0.0
2017-Jan-12 03:33N 37°46' E 023°27'0 0.0
2017-Jan-12 02:33N 37°46' E 023°27'0 0.0
2017-Jan-12 01:33N 37°46' E 023°27'0 0.0
2017-Jan-12 00:34N 37°46' E 023°27'0 0.1
2017-Jan-11 23:33N 37°47' E 023°27'0 0.0
2017-Jan-11 22:33N 37°47' E 023°27'0 0.0
2017-Jan-11 21:33N 37°47' E 023°27'0 0.0
2017-Jan-11 20:34N 37°47' E 023°27'0 0.0
2017-Jan-11 19:33N 37°47' E 023°27'0 0.0
2017-Jan-11 18:34N 37°47' E 023°27'0 0.0
2017-Jan-11 17:33N 37°47' E 023°27'0 0.0
2017-Jan-11 16:33N 37°47' E 023°27'0 0.0
2017-Jan-11 15:33N 37°46' E 023°27'8 7.9
2017-Jan-11 14:34N 37°51' E 023°18'10 9.6
2017-Jan-11 13:34N 37°54' E 023°07'1 1.4
2017-Jan-11 12:33N 37°55' E 023°05'0 0.0
2017-Jan-11 11:33N 37°55' E 023°05'0 0.0
2017-Jan-11 10:33N 37°55' E 023°05'0 0.0
2017-Jan-11 09:33N 37°55' E 023°05'0 0.0
2017-Jan-11 08:19N 37°55' E 023°05'1 0.1
2017-Jan-10 22:07N 37°54' E 023°06'5 7.7
2017-Jan-10 21:28N 37°54' E 023°13'910.5
2017-Jan-10 20:34N 37°52' E 023°25'  
Track history (hours):
 
Tides and Currents Weather Stations Pressure Air Temp Water Temp Dewpoint Dewpoint Depression Visibility Wind Speed Wind Dir Waves Ship Positions

Chrisanthi

Last reported at 2017-Jan-20 19:33 UTC. Time now 2017-Jan-20 20:12 UTC.
Position N 37°49' E 023°40'.

Length 56 m; draft 3.9 m.

Type: Ship (hazmat cat A). MMSI: 237009100.

Date/timePositionNaut miles runAvg speedWind from/ knotsBaromVisibWave heightAir tempDewpointWater temp
2017-Jan-20 19:33N 37°49' E 023°40'1110.1
2017-Jan-20 18:30N 37°40' E 023°46'74 2.8
2017-Jan-19 15:31N 37°09' E 025°12'9 8.9
2017-Jan-19 14:33N 37°06' E 025°22'0 0.3
2017-Jan-19 13:33N 37°06' E 025°22'0 0.0
2017-Jan-19 12:33N 37°06' E 025°22'0 0.0
2017-Jan-19 11:33N 37°06' E 025°22'  
2017-Jan-12 16:34N 37°04' E 025°05'7 2.4
2017-Jan-12 13:33N 37°10' E 025°00'69 9.8
2017-Jan-12 06:33N 37°40' E 023°42'10 9.7
2017-Jan-12 05:33N 37°47' E 023°33'5 5.1
2017-Jan-12 04:33N 37°46' E 023°27'0 0.0
2017-Jan-12 03:33N 37°46' E 023°27'0 0.0
2017-Jan-12 02:33N 37°46' E 023°27'0 0.0
2017-Jan-12 01:33N 37°46' E 023°27'0 0.0
2017-Jan-12 00:34N 37°46' E 023°27'0 0.1
2017-Jan-11 23:33N 37°47' E 023°27'0 0.0
2017-Jan-11 22:33N 37°47' E 023°27'0 0.0
2017-Jan-11 21:33N 37°47' E 023°27'0 0.0
2017-Jan-11 20:34N 37°47' E 023°27'0 0.0
2017-Jan-11 19:33N 37°47' E 023°27'0 0.0
2017-Jan-11 18:34N 37°47' E 023°27'0 0.0
2017-Jan-11 17:33N 37°47' E 023°27'0 0.0
2017-Jan-11 16:33N 37°47' E 023°27'0 0.0
2017-Jan-11 15:33N 37°46' E 023°27'8 7.9
2017-Jan-11 14:34N 37°51' E 023°18'10 9.6
2017-Jan-11 13:34N 37°54' E 023°07'1 1.4
2017-Jan-11 12:33N 37°55' E 023°05'0 0.0
2017-Jan-11 11:33N 37°55' E 023°05'0 0.0
2017-Jan-11 10:33N 37°55' E 023°05'0 0.0
2017-Jan-11 09:33N 37°55' E 023°05'0 0.0
2017-Jan-11 08:19N 37°55' E 023°05'1 0.1
2017-Jan-10 22:07N 37°54' E 023°06'5 7.7
2017-Jan-10 21:28N 37°54' E 023°13'910.5
2017-Jan-10 20:34N 37°52' E 023°25'  

Dump ship's entire track history